Impacts TAF Board
For situational awareness. Not to be used for flight planning purposes.
IDs:

KMDW - Chicago/Midway Intl, IL, US

Issued at 1438 UTC 19 Sep 2018
Updated at 1636 UTC 19 Sep 2018
Potential Impact None Slight Moderate High
Time<<20/17Z 20/18Z 20/19Z 20/20Z 20/21Z 20/22Z 20/23Z 21/00Z 21/01Z 21/02Z 21/03Z 21/04Z 21/05Z
Type PRVL
VIS >6
CIG --
Cover SCT
FltCat VFR
WX --
WDir 190
WSpd 10
WGst --
Raw TAF
KMDW 191438Z 1915/2018 07009KT P6SM SCT015 BKN250
  FM191800 08009KT P6SM FEW025 BKN200
  FM200000 10008KT P6SM BKN120
  FM200700 15007KT P6SM BKN050
  PROB30 2008/2012 3SM TSRA OVC040CB
  FM201600 19010KT P6SM SCT100


METAR Board
Radar Display
Forecast Discussion
For situational awareness. Not to be used for flight planning purposes.